createdAt,value
2022-08-05T00:00:54.599Z,101433.34
2022-08-05T00:02:07.635Z,101431.84
2022-08-05T00:03:15.487Z,101432.84
2022-08-05T00:04:18.787Z,101427.37
2022-08-05T00:06:01.458Z,101430.05
2022-08-05T00:06:45.439Z,101427.77
2022-08-05T00:08:00.336Z,101425.39
2022-08-05T00:09:04.468Z,101425.61
2022-08-05T00:10:15.911Z,101423.31
2022-08-05T00:11:23.898Z,101421.23
2022-08-05T00:12:33.609Z,101415.98
2022-08-05T00:13:53.127Z,101419.72
2022-08-05T00:14:56.179Z,101421.48
2022-08-05T00:16:00.320Z,101417.38
2022-08-05T00:17:04.446Z,101418.20
2022-08-05T00:18:22.607Z,101420.95
2022-08-05T00:19:33.776Z,101419.52
2022-08-05T00:20:49.041Z,101419.19
2022-08-05T00:21:52.078Z,101419.85
2022-08-05T00:22:59.696Z,101420.51
2022-08-05T00:24:10.590Z,101418.77
2022-08-05T00:25:14.375Z,101419.56
2022-08-05T00:26:20.011Z,101416.44
2022-08-05T00:27:23.010Z,101419.62
2022-08-05T00:28:39.165Z,101417.75
2022-08-05T00:29:42.972Z,101419.45
2022-08-05T00:30:46.379Z,101420.98
2022-08-05T00:32:13.039Z,101418.15
2022-08-05T00:34:54.018Z,101417.19
2022-08-05T00:35:04.686Z,101413.05
2022-08-05T00:36:15.209Z,101413.16
2022-08-05T00:37:50.449Z,101414.92
2022-08-05T00:38:51.811Z,101416.15
2022-08-05T00:39:58.812Z,101418.79
2022-08-05T00:41:02.117Z,101416.81
2022-08-05T00:42:05.157Z,101417.48
2022-08-05T00:43:08.019Z,101419.75
2022-08-05T00:44:10.927Z,101414.17
2022-08-05T00:45:14.335Z,101412.48
2022-08-05T00:46:17.230Z,101414.31
2022-08-05T00:47:56.367Z,101413.77
2022-08-05T00:49:00.493Z,101412.11
2022-08-05T00:50:03.605Z,101413.16
2022-08-05T00:51:51.139Z,101412.61
2022-08-05T00:52:31.944Z,101409.31
2022-08-05T00:54:00.206Z,101409.77
2022-08-05T00:55:05.008Z,101411.77
2022-08-05T00:56:08.451Z,101409.71
2022-08-05T00:57:12.003Z,101407.20
2022-08-05T00:58:17.012Z,101410.05
2022-08-05T00:59:22.395Z,101410.50
2022-08-05T01:00:26.100Z,101410.25
2022-08-05T01:01:42.533Z,101408.89
2022-08-05T01:02:51.292Z,101410.83
2022-08-05T01:03:55.950Z,101405.83
2022-08-05T01:04:59.220Z,101413.16
2022-08-05T01:06:02.590Z,101409.58
2022-08-05T01:07:06.863Z,101405.16
2022-08-05T01:08:42.581Z,101408.23
2022-08-05T01:09:39.402Z,101411.66
2022-08-05T01:10:58.099Z,101413.04
2022-08-05T01:12:18.242Z,101409.40
2022-08-05T01:13:27.168Z,101411.89
2022-08-05T01:14:35.251Z,101413.71
2022-08-05T01:15:47.864Z,101413.67
2022-08-05T01:16:54.743Z,101414.40
2022-08-05T01:18:01.788Z,101414.84
2022-08-05T01:19:20.236Z,101409.89
2022-08-05T01:20:41.412Z,101409.58
2022-08-05T01:22:02.946Z,101411.06
2022-08-05T01:23:14.365Z,101412.31
2022-08-05T01:24:45.876Z,101413.69
2022-08-05T01:25:53.803Z,101412.77
2022-08-05T01:27:17.533Z,101409.35
2022-08-05T01:28:22.518Z,101408.59
2022-08-05T01:29:29.484Z,101411.73
2022-08-05T01:32:00.795Z,101402.33
2022-08-05T01:33:08.281Z,101403.15
2022-08-05T01:34:21.618Z,101402.45
2022-08-05T01:35:51.318Z,101406.61
2022-08-05T01:37:00.458Z,101402.14
2022-08-05T01:38:04.368Z,101402.14
2022-08-05T01:39:07.531Z,101401.42
2022-08-05T01:40:12.690Z,101400.57
2022-08-05T01:41:17.525Z,101400.73
2022-08-05T01:42:25.796Z,101399.88
2022-08-05T01:43:30.737Z,101393.92
2022-08-05T01:44:36.434Z,101392.67
2022-08-05T01:45:43.071Z,101389.77
2022-08-05T01:46:46.910Z,101389.19
2022-08-05T01:47:54.480Z,101390.71
2022-08-05T01:49:01.016Z,101387.05
2022-08-05T01:50:29.641Z,101389.08
2022-08-05T01:51:35.477Z,101391.55
2022-08-05T01:52:42.466Z,101395.84
2022-08-05T01:53:57.663Z,101390.57
2022-08-05T01:55:04.480Z,101394.98
2022-08-05T01:56:09.532Z,101392.69
2022-08-05T01:58:10.638Z,101390.66
2022-08-05T01:58:44.685Z,101391.16
2022-08-05T01:59:54.980Z,101391.23
2022-08-05T02:00:59.601Z,101391.77
2022-08-05T02:02:03.024Z,101387.73
2022-08-05T02:03:31.531Z,101389.20
2022-08-05T02:04:37.173Z,101388.88
2022-08-05T02:05:45.181Z,101385.05
2022-08-05T02:06:51.240Z,101384.73
2022-08-05T02:07:59.797Z,101384.58
2022-08-05T02:09:05.672Z,101385.98
2022-08-05T02:10:10.426Z,101382.98
2022-08-05T02:11:23.855Z,101384.86
2022-08-05T02:12:42.607Z,101382.61
2022-08-05T02:13:53.466Z,101384.85
2022-08-05T02:15:19.892Z,101379.75
2022-08-05T02:16:23.037Z,101379.41
2022-08-05T02:18:27.885Z,101381.11
2022-08-05T02:18:59.019Z,101384.86
2022-08-05T02:20:03.455Z,101382.96
2022-08-05T02:21:14.717Z,101388.58
2022-08-05T02:22:25.796Z,101385.08
2022-08-05T02:23:33.617Z,101384.97
2022-08-05T02:24:38.149Z,101383.92
2022-08-05T02:25:49.699Z,101383.40
2022-08-05T02:26:56.219Z,101382.04
2022-08-05T02:28:00.584Z,101383.67
2022-08-05T02:29:04.739Z,101380.50
2022-08-05T02:30:09.093Z,101380.02
2022-08-05T02:31:16.646Z,101380.16
2022-08-05T02:32:30.938Z,101380.34
2022-08-05T02:33:38.850Z,101383.00
2022-08-05T02:34:43.798Z,101384.15
2022-08-05T02:36:01.341Z,101385.40
2022-08-05T02:37:08.180Z,101380.29
2022-08-05T02:38:13.332Z,101379.80
2022-08-05T02:39:23.171Z,101383.61
2022-08-05T02:40:27.551Z,101380.57
2022-08-05T02:41:43.361Z,101380.77
2022-08-05T02:42:55.728Z,101384.11
2022-08-05T02:44:02.243Z,101382.36
2022-08-05T02:45:10.259Z,101382.70
2022-08-05T02:46:16.482Z,101382.58
2022-08-05T02:47:21.040Z,101379.08
2022-08-05T02:48:29.070Z,101376.14
2022-08-05T02:49:40.368Z,101375.30
2022-08-05T02:50:47.366Z,101377.23
2022-08-05T02:52:03.025Z,101375.64
2022-08-05T02:53:11.791Z,101372.75
2022-08-05T02:54:34.856Z,101372.98
2022-08-05T02:55:54.942Z,101372.73
2022-08-05T02:57:03.094Z,101372.92
2022-08-05T02:58:11.015Z,101373.14
2022-08-05T02:59:17.339Z,101374.61
2022-08-05T03:00:21.612Z,101375.23
2022-08-05T03:01:25.614Z,101377.40
2022-08-05T03:02:33.993Z,101373.52
2022-08-05T03:04:04.391Z,101375.21
2022-08-05T03:05:04.167Z,101371.61
2022-08-05T03:06:55.754Z,101371.78
2022-08-05T03:08:01.604Z,101370.69
2022-08-05T03:08:55.026Z,101371.01
2022-08-05T03:09:59.478Z,101367.63
2022-08-05T03:11:57.149Z,101364.95
2022-08-05T03:12:31.160Z,101365.66
2022-08-05T03:13:51.731Z,101364.13
2022-08-05T03:14:57.355Z,101362.22
2022-08-05T03:16:00.250Z,101362.44
2022-08-05T03:17:07.366Z,101360.96
2022-08-05T03:18:12.326Z,101358.34
2022-08-05T03:19:33.015Z,101357.92
2022-08-05T03:20:38.274Z,101359.13
2022-08-05T03:21:49.624Z,101359.34
2022-08-05T03:22:57.276Z,101353.98
2022-08-05T03:24:01.063Z,101357.70
2022-08-05T03:26:03.418Z,101358.36
2022-08-05T03:26:32.281Z,101360.48
2022-08-05T03:27:57.971Z,101360.20
2022-08-05T03:28:59.125Z,101362.11
2022-08-05T03:30:07.746Z,101356.38
2022-08-05T03:31:55.360Z,101362.16
2022-08-05T03:32:35.994Z,101361.02
2022-08-05T03:33:52.693Z,101357.73
2022-08-05T03:34:56.271Z,101363.26
2022-08-05T03:35:59.733Z,101360.86
2022-08-05T03:37:03.675Z,101363.31
2022-08-05T03:38:06.850Z,101363.92
2022-08-05T03:39:13.026Z,101367.46
2022-08-05T03:40:31.137Z,101366.11
2022-08-05T03:41:45.164Z,101362.95
2022-08-05T03:42:52.441Z,101362.06
2022-08-05T03:44:08.335Z,101364.52
2022-08-05T03:45:21.586Z,101361.62
2022-08-05T03:46:26.797Z,101363.26
2022-08-05T03:47:35.390Z,101362.02
2022-08-05T03:48:45.362Z,101362.89
2022-08-05T03:49:51.449Z,101362.60
2022-08-05T03:52:35.374Z,101361.73
2022-08-05T03:54:59.099Z,101357.42
2022-08-05T03:55:54.083Z,101366.98
2022-08-05T03:56:04.332Z,101364.17
2022-08-05T03:57:16.695Z,101363.05
2022-08-05T03:58:22.960Z,101367.85
2022-08-05T03:59:47.080Z,101362.10
2022-08-05T04:01:00.089Z,101364.95
2022-08-05T04:02:04.096Z,101362.12
2022-08-05T04:03:26.621Z,101364.17
2022-08-05T04:04:32.830Z,101362.50
2022-08-05T04:05:36.330Z,101359.52
2022-08-05T04:06:47.648Z,101360.27
2022-08-05T04:07:58.295Z,101360.98
2022-08-05T04:09:02.597Z,101361.48
2022-08-05T04:10:07.365Z,101361.73
2022-08-05T04:11:11.193Z,101360.05
2022-08-05T04:12:24.759Z,101362.02
2022-08-05T04:13:49.837Z,101361.13
2022-08-05T04:14:51.634Z,101360.97
2022-08-05T04:16:04.434Z,101358.77
2022-08-05T04:17:08.876Z,101358.94
2022-08-05T04:18:20.573Z,101356.20
2022-08-05T04:19:25.732Z,101357.30
2022-08-05T04:20:28.661Z,101355.60
2022-08-05T04:22:09.509Z,101355.25
2022-08-05T04:22:54.977Z,101359.14
2022-08-05T04:24:05.998Z,101358.91
2022-08-05T04:25:11.962Z,101358.23
2022-08-05T04:26:18.195Z,101357.91
2022-08-05T04:27:41.662Z,101359.77
2022-08-05T04:28:51.671Z,101362.60
2022-08-05T04:29:55.199Z,101360.35
2022-08-05T04:30:58.218Z,101357.63
2022-08-05T04:32:03.939Z,101354.34
2022-08-05T04:33:06.931Z,101349.91
2022-08-05T04:34:18.330Z,101351.71
2022-08-05T04:36:10.945Z,101352.05
2022-08-05T04:36:57.388Z,101351.64
2022-08-05T04:38:02.603Z,101351.30
2022-08-05T04:39:09.626Z,101357.69
2022-08-05T04:40:14.421Z,101354.89
2022-08-05T04:41:22.800Z,101356.85
2022-08-05T04:42:40.049Z,101357.05
2022-08-05T04:43:48.042Z,101357.70
2022-08-05T04:44:55.142Z,101357.19
2022-08-05T04:45:58.041Z,101358.38
2022-08-05T04:47:09.933Z,101358.17
2022-08-05T04:48:18.525Z,101357.83
2022-08-05T04:49:38.446Z,101360.52
2022-08-05T04:51:03.750Z,101356.75
2022-08-05T04:52:15.093Z,101358.20
2022-08-05T04:53:18.675Z,101356.62
2022-08-05T04:54:22.357Z,101358.13
2022-08-05T04:56:15.086Z,101359.37
2022-08-05T04:56:50.103Z,101355.30
2022-08-05T04:57:56.635Z,101355.11
2022-08-05T04:58:59.691Z,101355.41
2022-08-05T05:00:23.314Z,101357.78
2022-08-05T05:02:08.117Z,101356.41
2022-08-05T05:02:50.575Z,101358.29
2022-08-05T05:03:53.668Z,101360.45
2022-08-05T05:05:01.623Z,101359.95
2022-08-05T05:06:40.591Z,101359.75
2022-08-05T05:07:29.722Z,101360.92
2022-08-05T05:08:36.577Z,101359.00
2022-08-05T05:09:46.014Z,101355.84
2022-08-05T05:10:56.156Z,101356.55
2022-08-05T05:12:02.928Z,101352.81
2022-08-05T05:13:06.163Z,101358.27
2022-08-05T05:14:10.551Z,101358.31
2022-08-05T05:15:56.371Z,101360.70
2022-08-05T05:16:42.349Z,101362.49
2022-08-05T05:17:56.444Z,101363.91
2022-08-05T05:19:18.776Z,101362.87
2022-08-05T05:20:22.637Z,101361.55
2022-08-05T05:21:33.118Z,101363.04
2022-08-05T05:22:36.206Z,101360.84
2022-08-05T05:24:04.075Z,101359.28
2022-08-05T05:25:16.600Z,101357.19
2022-08-05T05:26:28.122Z,101361.64
2022-08-05T05:27:45.911Z,101359.42
2022-08-05T05:28:51.771Z,101358.89
2022-08-05T05:30:04.971Z,101356.70
2022-08-05T05:31:08.935Z,101357.98
2022-08-05T05:32:12.555Z,101357.15
2022-08-05T05:33:23.317Z,101359.73
2022-08-05T05:34:27.321Z,101356.63
2022-08-05T05:35:38.133Z,101356.35
2022-08-05T05:36:42.732Z,101355.23
2022-08-05T05:37:59.558Z,101356.55
2022-08-05T05:39:04.401Z,101354.33
2022-08-05T05:40:07.844Z,101354.35
2022-08-05T05:41:10.894Z,101355.13
2022-08-05T05:42:15.150Z,101354.02
2022-08-05T05:43:27.630Z,101352.42
2022-08-05T05:44:44.405Z,101355.08
2022-08-05T05:45:49.265Z,101352.61
2022-08-05T05:46:52.177Z,101351.36
2022-08-05T05:48:07.088Z,101349.69
2022-08-05T05:49:22.965Z,101353.10
2022-08-05T05:50:26.451Z,101349.77
2022-08-05T05:51:29.424Z,101349.30
2022-08-05T05:52:52.927Z,101353.09
2022-08-05T05:53:59.491Z,101350.05
2022-08-05T05:55:07.532Z,101352.90
2022-08-05T05:56:16.824Z,101350.72
2022-08-05T05:57:51.885Z,101352.05
2022-08-05T05:58:55.483Z,101354.19
2022-08-05T05:59:58.746Z,101356.17
2022-08-05T06:01:12.798Z,101356.56
2022-08-05T06:02:32.727Z,101356.92
2022-08-05T06:04:00.833Z,101356.63
2022-08-05T06:05:10.453Z,101355.53
2022-08-05T06:06:19.919Z,101357.97
2022-08-05T06:07:41.353Z,101356.98
2022-08-05T06:08:49.228Z,101357.82
2022-08-05T06:10:01.515Z,101357.51
2022-08-05T06:11:08.838Z,101357.55
2022-08-05T06:12:16.572Z,101356.56
2022-08-05T06:13:22.552Z,101356.81
2022-08-05T06:14:27.891Z,101359.34
2022-08-05T06:16:30.644Z,101360.33
2022-08-05T06:16:54.665Z,101357.13
2022-08-05T06:18:00.083Z,101357.05
2022-08-05T06:19:05.924Z,101357.90
2022-08-05T06:20:21.432Z,101359.57
2022-08-05T06:21:24.782Z,101357.94
2022-08-05T06:22:40.535Z,101358.45
2022-08-05T06:23:45.537Z,101357.61
2022-08-05T06:24:52.751Z,101352.92
2022-08-05T06:26:13.360Z,101354.77
2022-08-05T06:28:10.932Z,101349.95
2022-08-05T06:28:42.154Z,101348.45
2022-08-05T06:29:51.926Z,101344.22
2022-08-05T06:31:11.312Z,101346.20
2022-08-05T06:32:28.635Z,101346.97
2022-08-05T06:33:52.258Z,101346.23
2022-08-05T06:34:57.207Z,101342.48
2022-08-05T06:36:07.556Z,101345.58
2022-08-05T06:37:13.342Z,101343.10
2022-08-05T06:38:17.726Z,101344.05
2022-08-05T06:39:39.552Z,101344.37
2022-08-05T06:40:44.878Z,101344.25
2022-08-05T06:41:49.424Z,101342.98
2022-08-05T06:42:52.895Z,101338.84
2022-08-05T06:44:00.271Z,101339.63
2022-08-05T06:45:05.494Z,101336.14
2022-08-05T06:46:11.922Z,101334.80
2022-08-05T06:47:30.110Z,101334.71
2022-08-05T06:48:52.816Z,101334.59
2022-08-05T06:50:05.181Z,101333.14
2022-08-05T06:51:09.606Z,101335.17
2022-08-05T06:52:37.982Z,101333.65
2022-08-05T06:53:39.422Z,101333.14
2022-08-05T06:54:42.458Z,101331.08
2022-08-05T06:55:46.030Z,101329.47
2022-08-05T06:56:55.118Z,101327.49
2022-08-05T06:58:29.580Z,101328.09
2022-08-05T06:59:38.801Z,101328.34
2022-08-05T07:00:45.513Z,101329.48
2022-08-05T07:01:50.452Z,101329.27
2022-08-05T07:02:56.108Z,101328.52
2022-08-05T07:03:59.445Z,101326.90
2022-08-05T07:05:02.468Z,101324.10
2022-08-05T07:06:14.135Z,101328.94
2022-08-05T07:07:24.158Z,101326.46
2022-08-05T07:08:47.660Z,101324.92
2022-08-05T07:09:55.524Z,101328.33
2022-08-05T07:11:01.929Z,101322.70
2022-08-05T07:12:05.092Z,101320.92
2022-08-05T07:13:54.283Z,101321.94
2022-08-05T07:15:09.473Z,101319.11
2022-08-05T07:17:56.977Z,101317.38
2022-08-05T07:18:01.904Z,101316.66
2022-08-05T07:19:11.177Z,101318.41
2022-08-05T07:20:37.037Z,101315.25
2022-08-05T07:22:00.230Z,101311.77
2022-08-05T07:23:04.540Z,101317.70
2022-08-05T07:24:11.198Z,101312.84
2022-08-05T07:25:54.190Z,101311.14
2022-08-05T07:26:37.547Z,101316.73
2022-08-05T07:27:57.543Z,101313.48
2022-08-05T07:29:03.758Z,101311.20
2022-08-05T07:30:27.212Z,101311.13
2022-08-05T07:31:40.952Z,101307.42
2022-08-05T07:32:53.557Z,101309.98
2022-08-05T07:33:56.542Z,101304.03
2022-08-05T07:36:01.554Z,101304.17
2022-08-05T07:36:30.305Z,101304.10
2022-08-05T07:37:36.179Z,101301.73
2022-08-05T07:38:44.195Z,101298.96
2022-08-05T07:40:26.887Z,101300.44
2022-08-05T07:42:07.409Z,101305.30
2022-08-05T07:42:36.391Z,101301.83
2022-08-05T07:43:39.417Z,101303.02
2022-08-05T07:44:46.223Z,101301.77
2022-08-05T07:45:57.555Z,101301.38
2022-08-05T07:47:01.463Z,101303.60
2022-08-05T07:48:11.288Z,101302.48
2022-08-05T07:49:16.317Z,101307.46
2022-08-05T07:50:28.872Z,101300.12
2022-08-05T07:51:40.942Z,101303.02
2022-08-05T07:52:57.250Z,101301.73
2022-08-05T07:54:01.766Z,101303.47
2022-08-05T07:55:16.011Z,101302.95
2022-08-05T07:56:59.842Z,101301.42
2022-08-05T07:58:02.430Z,101302.47
2022-08-05T07:59:08.590Z,101298.33
2022-08-05T08:00:14.410Z,101302.04
2022-08-05T08:01:17.987Z,101302.64
2022-08-05T08:02:26.700Z,101299.58
2022-08-05T08:03:44.290Z,101302.38
2022-08-05T08:04:49.198Z,101303.04
2022-08-05T08:05:52.650Z,101299.37
2022-08-05T08:06:56.150Z,101304.67
2022-08-05T08:08:00.720Z,101304.23
2022-08-05T08:09:03.930Z,101303.12
2022-08-05T08:10:08.823Z,101303.04
2022-08-05T08:11:15.865Z,101300.19
2022-08-05T08:12:35.083Z,101306.34
2022-08-05T08:13:49.298Z,101303.64
2022-08-05T08:15:04.345Z,101304.17
2022-08-05T08:16:35.000Z,101302.86
2022-08-05T08:17:31.017Z,101302.27
2022-08-05T08:18:34.007Z,101299.66
2022-08-05T08:20:10.719Z,101295.63
2022-08-05T08:21:03.564Z,101296.13
2022-08-05T08:22:09.018Z,101296.35
2022-08-05T08:24:02.727Z,101295.34
2022-08-05T08:24:51.848Z,101296.13
2022-08-05T08:26:00.349Z,101295.42
2022-08-05T08:27:07.031Z,101289.73
2022-08-05T08:28:18.368Z,101295.97
2022-08-05T08:30:04.059Z,101293.25
2022-08-05T08:30:47.817Z,101289.62
2022-08-05T08:31:53.278Z,101286.09
2022-08-05T08:32:56.242Z,101280.96
2022-08-05T08:34:00.209Z,101284.54
2022-08-05T08:35:03.321Z,101282.09
2022-08-05T08:37:31.012Z,101284.20
2022-08-05T08:38:39.535Z,101276.80
2022-08-05T08:39:49.501Z,101273.15
2022-08-05T08:40:53.094Z,101271.36
2022-08-05T08:42:02.259Z,101274.29
2022-08-05T08:44:54.757Z,101273.25
2022-08-05T08:45:16.625Z,101274.59
2022-08-05T08:45:56.731Z,101281.24
2022-08-05T08:47:01.409Z,101283.59
2022-08-05T08:48:12.475Z,101286.45
2022-08-05T08:50:22.656Z,101281.38
2022-08-05T08:51:22.134Z,101281.45
2022-08-05T08:52:19.795Z,101279.94
2022-08-05T08:53:24.852Z,101281.31
2022-08-05T08:54:30.802Z,101280.00
2022-08-05T08:56:03.919Z,101282.48
2022-08-05T08:56:59.317Z,101275.09
2022-08-05T08:58:02.713Z,101279.52
2022-08-05T08:59:14.648Z,101275.23
2022-08-05T09:00:22.827Z,101273.80
2022-08-05T09:01:26.214Z,101267.32
2022-08-05T09:02:29.517Z,101266.90
2022-08-05T09:03:39.455Z,101270.75
2022-08-05T09:05:16.346Z,101265.37
2022-08-05T09:06:13.066Z,101263.52
2022-08-05T09:07:29.195Z,101264.98
2022-08-05T09:08:42.563Z,101265.01
2022-08-05T09:09:47.506Z,101265.76
2022-08-05T09:10:53.298Z,101260.59
2022-08-05T09:12:01.270Z,101261.69
2022-08-05T09:13:15.450Z,101256.24
2022-08-05T09:14:56.855Z,101261.42
2022-08-05T09:15:41.853Z,101257.55
2022-08-05T09:16:48.857Z,101260.51
2022-08-05T09:17:53.063Z,101252.16
2022-08-05T09:18:56.163Z,101261.16
2022-08-05T09:20:05.471Z,101252.23
2022-08-05T09:21:11.619Z,101256.39
2022-08-05T09:22:31.923Z,101262.50
2022-08-05T09:23:43.622Z,101260.95
2022-08-05T09:25:13.653Z,101258.18
2022-08-05T09:26:32.326Z,101255.05
2022-08-05T09:28:05.019Z,101249.58
2022-08-05T09:29:04.592Z,101248.25
2022-08-05T09:30:07.973Z,101252.71
2022-08-05T09:31:43.534Z,101250.27
2022-08-05T09:32:46.502Z,101242.74
2022-08-05T09:33:55.090Z,101246.79
2022-08-05T09:35:02.588Z,101243.82
2022-08-05T09:36:11.791Z,101240.15
2022-08-05T09:38:18.484Z,101241.98
2022-08-05T09:38:59.748Z,101239.30
2022-08-05T09:40:03.446Z,101242.13
2022-08-05T09:41:08.728Z,101246.23
2022-08-05T09:42:17.400Z,101245.73
2022-08-05T09:43:28.179Z,101237.45
2022-08-05T09:44:49.466Z,101237.71
2022-08-05T09:46:06.525Z,101232.93
2022-08-05T09:47:15.460Z,101232.55
2022-08-05T09:48:29.486Z,101229.41
2022-08-05T09:50:01.375Z,101229.47
2022-08-05T09:50:58.137Z,101224.86
2022-08-05T09:52:16.499Z,101227.17
2022-08-05T09:53:25.803Z,101224.17
2022-08-05T09:54:35.488Z,101220.79
2022-08-05T09:55:58.138Z,101218.69
2022-08-05T09:57:02.025Z,101224.40
2022-08-05T09:58:12.457Z,101224.55
2022-08-05T09:59:17.515Z,101226.76
2022-08-05T10:00:24.649Z,101229.33
2022-08-05T10:01:31.724Z,101226.42
2022-08-05T10:02:36.742Z,101226.67
2022-08-05T10:03:58.904Z,101221.27
2022-08-05T10:05:08.010Z,101223.70
2022-08-05T10:06:15.500Z,101216.75
2022-08-05T10:07:20.847Z,101211.50
2022-08-05T10:08:42.368Z,101210.70
2022-08-05T10:10:13.939Z,101213.63
2022-08-05T10:11:17.944Z,101216.39
2022-08-05T10:12:33.676Z,101210.73
2022-08-05T10:13:47.861Z,101209.11
2022-08-05T10:14:54.323Z,101212.20
2022-08-05T10:15:58.666Z,101212.69
2022-08-05T10:17:36.819Z,101212.42
2022-08-05T10:18:38.515Z,101209.70
2022-08-05T10:20:04.223Z,101211.05
2022-08-05T10:21:11.852Z,101208.05
2022-08-05T10:22:29.706Z,101209.88
2022-08-05T10:23:55.209Z,101209.06
2022-08-05T10:24:56.402Z,101208.98
2022-08-05T10:26:00.958Z,101204.36
2022-08-05T10:27:04.202Z,101197.17
2022-08-05T10:28:17.074Z,101197.45
2022-08-05T10:29:24.030Z,101194.73
2022-08-05T10:32:49.269Z,101187.33
2022-08-05T10:32:54.223Z,101184.13
2022-08-05T10:33:35.256Z,101183.66
2022-08-05T10:34:40.698Z,101182.80
2022-08-05T10:35:45.428Z,101182.09
2022-08-05T10:36:50.631Z,101181.88
2022-08-05T10:37:54.981Z,101182.04
2022-08-05T10:39:05.270Z,101179.75
2022-08-05T10:40:34.980Z,101178.81
2022-08-05T10:42:08.156Z,101179.44
2022-08-05T10:43:14.731Z,101175.80
2022-08-05T10:44:19.068Z,101173.83
2022-08-05T10:45:41.890Z,101176.29
2022-08-05T10:46:46.886Z,101177.55
2022-08-05T10:48:29.681Z,101173.98
2022-08-05T10:49:17.679Z,101172.77
2022-08-05T10:50:36.589Z,101171.16
2022-08-05T10:51:48.675Z,101175.27
2022-08-05T10:53:02.563Z,101169.40
2022-08-05T10:54:31.096Z,101174.51
2022-08-05T10:55:38.484Z,101168.96
2022-08-05T10:56:58.499Z,101167.52
2022-08-05T10:58:09.534Z,101170.06
2022-08-05T11:00:04.398Z,101172.95
2022-08-05T11:00:55.330Z,101171.20
2022-08-05T11:02:06.978Z,101161.25
2022-08-05T11:03:24.981Z,101167.77
2022-08-05T11:04:30.752Z,101173.32
2022-08-05T11:05:34.474Z,101170.91
2022-08-05T11:06:58.436Z,101165.83
2022-08-05T11:08:27.572Z,101163.13
2022-08-05T11:09:45.770Z,101169.05
2022-08-05T11:11:01.132Z,101155.63
2022-08-05T11:12:26.630Z,101159.01
2022-08-05T11:13:57.655Z,101156.57
2022-08-05T11:15:20.502Z,101148.40
2022-08-05T11:16:33.807Z,101153.09
2022-08-05T11:17:59.228Z,101147.02
2022-08-05T11:20:10.821Z,101144.61
2022-08-05T11:20:46.166Z,101149.67
2022-08-05T11:21:49.758Z,101157.92
2022-08-05T11:22:54.842Z,101149.46
2022-08-05T11:24:14.814Z,101149.33
2022-08-05T11:26:05.322Z,101146.05
2022-08-05T11:27:17.089Z,101146.23
2022-08-05T11:28:20.014Z,101140.89
2022-08-05T11:29:40.288Z,101138.63
2022-08-05T11:31:12.335Z,101141.15
2022-08-05T11:32:35.323Z,101153.75
2022-08-05T11:33:46.062Z,101145.19
2022-08-05T11:34:54.096Z,101143.39
2022-08-05T11:36:08.779Z,101138.21
2022-08-05T11:38:29.841Z,101142.94
2022-08-05T11:38:57.866Z,101138.48
2022-08-05T11:40:03.627Z,101139.27
2022-08-05T11:41:56.235Z,101140.37
2022-08-05T11:42:41.206Z,101139.98
2022-08-05T11:44:05.933Z,101139.29
2022-08-05T11:45:26.766Z,101132.70
2022-08-05T11:47:09.422Z,101130.48
2022-08-05T11:48:07.711Z,101127.27
2022-08-05T11:49:15.602Z,101127.39
2022-08-05T11:50:19.208Z,101125.33
2022-08-05T11:51:44.078Z,101129.63
2022-08-05T11:52:49.456Z,101121.40
2022-08-05T11:53:53.816Z,101127.54
2022-08-05T11:55:07.596Z,101120.35
2022-08-05T11:56:13.879Z,101116.77
2022-08-05T11:57:24.420Z,101122.31
2022-08-05T11:58:30.279Z,101121.09
2022-08-05T11:59:49.521Z,101124.89
2022-08-05T12:01:00.855Z,101131.73
2022-08-05T12:02:23.669Z,101129.82
2022-08-05T12:03:31.541Z,101122.20
2022-08-05T12:04:38.088Z,101114.56
2022-08-05T12:05:46.129Z,101116.75
2022-08-05T12:06:49.223Z,101118.77
2022-08-05T12:08:10.444Z,101113.05
2022-08-05T12:09:19.959Z,101113.64
2022-08-05T12:10:42.840Z,101108.41
2022-08-05T12:11:48.685Z,101113.17
2022-08-05T12:12:59.942Z,101110.32
2022-08-05T12:14:06.820Z,101105.48
2022-08-05T12:15:19.156Z,101101.82
2022-08-05T12:16:40.421Z,101096.44
2022-08-05T12:18:03.832Z,101101.05
2022-08-05T12:20:27.016Z,101108.48
2022-08-05T12:20:38.783Z,101117.17
2022-08-05T12:21:49.210Z,101104.02
2022-08-05T12:22:52.441Z,101100.73
2022-08-05T12:24:04.547Z,101101.46
2022-08-05T12:25:09.076Z,101088.41
2022-08-05T12:26:17.262Z,101095.46
2022-08-05T12:27:25.541Z,101094.16
2022-08-05T12:28:31.442Z,101092.13
2022-08-05T12:29:37.976Z,101087.66
2022-08-05T12:30:46.042Z,101084.33
2022-08-05T12:31:53.023Z,101082.91
2022-08-05T12:32:58.737Z,101080.91
2022-08-05T12:34:20.256Z,101084.11
2022-08-05T12:35:24.919Z,101086.43
2022-08-05T12:36:43.892Z,101091.85
2022-08-05T12:37:47.107Z,101090.84
2022-08-05T12:38:51.341Z,101086.41
2022-08-05T12:39:56.770Z,101090.63
2022-08-05T12:41:12.282Z,101080.53
2022-08-05T12:42:17.686Z,101091.98
2022-08-05T12:43:21.282Z,101095.46
2022-08-05T12:44:33.455Z,101090.66
2022-08-05T12:45:48.286Z,101093.09
2022-08-05T12:46:54.906Z,101087.25
2022-08-05T12:48:01.752Z,101089.55
2022-08-05T12:49:25.497Z,101089.83
2022-08-05T12:50:30.831Z,101093.69
2022-08-05T12:52:14.354Z,101092.77
2022-08-05T12:53:15.674Z,101088.16
2022-08-05T12:54:23.361Z,101090.23
2022-08-05T12:55:33.000Z,101092.73
2022-08-05T12:56:41.895Z,101086.13
2022-08-05T12:58:49.831Z,101082.30
2022-08-05T12:59:13.821Z,101082.85
2022-08-05T13:02:00.554Z,101081.44
2022-08-05T13:02:02.519Z,101091.43
2022-08-05T13:03:08.073Z,101082.20
2022-08-05T13:04:20.837Z,101078.60
2022-08-05T13:05:24.970Z,101079.88
2022-08-05T13:06:41.099Z,101078.58
2022-08-05T13:07:59.981Z,101073.45
2022-08-05T13:09:08.702Z,101072.88
2022-08-05T13:10:19.869Z,101073.90
2022-08-05T13:12:03.233Z,101074.48
2022-08-05T13:12:57.730Z,101074.84
2022-08-05T13:14:06.171Z,101080.37
2022-08-05T13:15:18.064Z,101083.88
2022-08-05T13:16:28.161Z,101074.01
2022-08-05T13:17:41.754Z,101068.98
2022-08-05T13:18:52.536Z,101070.43
2022-08-05T13:20:00.969Z,101066.73
2022-08-05T13:21:04.149Z,101066.48
2022-08-05T13:22:07.513Z,101062.86
2022-08-05T13:23:15.178Z,101061.98
2022-08-05T13:24:27.809Z,101056.39
2022-08-05T13:25:51.897Z,101063.25
2022-08-05T13:27:02.815Z,101064.41
2022-08-05T13:28:06.922Z,101062.65
2022-08-05T13:29:19.121Z,101062.62
2022-08-05T13:30:39.134Z,101054.11
2022-08-05T13:32:04.971Z,101054.13
2022-08-05T13:33:06.065Z,101046.89
2022-08-05T13:34:24.241Z,101050.81
2022-08-05T13:35:43.238Z,101046.94
2022-08-05T13:36:52.176Z,101045.55
2022-08-05T13:37:55.356Z,101037.29
2022-08-05T13:38:59.005Z,101042.23
2022-08-05T13:40:16.189Z,101045.31
2022-08-05T13:41:25.713Z,101049.61